createdAt,value
2023-01-31T00:00:50.239Z,75.60
2023-01-31T00:01:50.259Z,75.60
2023-01-31T00:02:50.206Z,75.92
2023-01-31T00:03:50.231Z,75.84
2023-01-31T00:04:50.185Z,76.02
2023-01-31T00:05:50.173Z,76.02
2023-01-31T00:06:50.162Z,76.15
2023-01-31T00:07:50.150Z,76.12
2023-01-31T00:08:50.153Z,75.92
2023-01-31T00:09:50.127Z,75.92
2023-01-31T00:10:50.127Z,76.23
2023-01-31T00:11:50.112Z,76.43
2023-01-31T00:12:50.098Z,76.36
2023-01-31T00:13:50.099Z,76.36
2023-01-31T00:14:50.086Z,76.36
2023-01-31T00:15:50.148Z,76.36
2023-01-31T00:16:50.071Z,76.67
2023-01-31T00:17:50.074Z,76.57
2023-01-31T00:18:50.078Z,76.36
2023-01-31T00:19:50.034Z,76.26
2023-01-31T00:20:50.039Z,76.23
2023-01-31T00:21:50.009Z,76.46
2023-01-31T00:22:49.989Z,76.12
2023-01-31T00:23:49.991Z,76.15
2023-01-31T00:24:49.974Z,76.36
2023-01-31T00:25:49.957Z,76.78
2023-01-31T00:26:49.982Z,76.67
2023-01-31T00:27:49.973Z,76.57
2023-01-31T00:28:49.945Z,76.57
2023-01-31T00:29:49.944Z,76.46
2023-01-31T00:30:49.925Z,76.46
2023-01-31T00:31:50.025Z,76.15
2023-01-31T00:32:49.927Z,76.36
2023-01-31T00:33:49.884Z,76.46
2023-01-31T00:34:49.871Z,76.05
2023-01-31T00:35:49.862Z,76.26
2023-01-31T00:36:49.846Z,76.26
2023-01-31T00:37:49.845Z,76.67
2023-01-31T00:38:49.911Z,76.26
2023-01-31T00:39:49.812Z,76.36
2023-01-31T00:40:49.798Z,76.36
2023-01-31T00:41:49.788Z,76.36
2023-01-31T00:42:49.776Z,76.26
2023-01-31T00:43:49.778Z,76.05
2023-01-31T00:44:49.766Z,76.26
2023-01-31T00:45:49.748Z,76.36
2023-01-31T00:46:49.785Z,76.26
2023-01-31T00:47:49.746Z,76.36
2023-01-31T00:48:49.724Z,76.36
2023-01-31T00:49:49.709Z,75.95
2023-01-31T00:50:49.692Z,76.57
2023-01-31T00:51:49.710Z,76.36
2023-01-31T00:52:49.710Z,76.57
2023-01-31T00:53:49.678Z,76.78
2023-01-31T00:54:49.649Z,76.98
2023-01-31T00:55:49.640Z,76.57
2023-01-31T00:56:49.632Z,76.78
2023-01-31T00:57:49.621Z,76.46
2023-01-31T00:58:49.620Z,76.78
2023-01-31T00:59:49.598Z,76.98
2023-01-31T01:00:49.690Z,76.98
2023-01-31T01:01:49.593Z,76.88
2023-01-31T01:02:49.566Z,76.74
2023-01-31T01:03:49.589Z,76.84
2023-01-31T01:04:49.548Z,76.74
2023-01-31T01:05:49.533Z,76.74
2023-01-31T01:06:49.521Z,76.43
2023-01-31T01:07:49.519Z,76.43
2023-01-31T01:08:49.530Z,76.53
2023-01-31T01:09:49.492Z,76.74
2023-01-31T01:10:49.480Z,76.53
2023-01-31T01:11:49.474Z,76.23
2023-01-31T01:12:49.464Z,76.64
2023-01-31T01:13:49.460Z,76.43
2023-01-31T01:14:49.437Z,76.32
2023-01-31T01:15:49.448Z,76.23
2023-01-31T01:16:49.422Z,76.12
2023-01-31T01:17:49.406Z,76.64
2023-01-31T01:18:49.404Z,76.12
2023-01-31T01:19:49.410Z,76.02
2023-01-31T01:20:49.372Z,75.81
2023-01-31T01:21:49.364Z,75.81
2023-01-31T01:22:49.353Z,75.78
2023-01-31T01:23:49.371Z,75.78
2023-01-31T01:24:49.329Z,75.78
2023-01-31T01:25:49.322Z,75.46
2023-01-31T01:26:49.385Z,75.92
2023-01-31T01:27:49.302Z,75.81
2023-01-31T01:28:49.304Z,75.78
2023-01-31T01:29:49.280Z,75.60
2023-01-31T01:30:49.274Z,75.60
2023-01-31T01:31:49.442Z,75.46
2023-01-31T01:32:49.252Z,75.50
2023-01-31T01:33:49.261Z,75.26
2023-01-31T01:34:49.222Z,75.36
2023-01-31T01:35:49.247Z,75.26
2023-01-31T01:36:49.203Z,75.29
2023-01-31T01:37:49.192Z,75.50
2023-01-31T01:38:49.198Z,75.26
2023-01-31T01:39:49.185Z,75.36
2023-01-31T01:40:49.160Z,75.36
2023-01-31T01:41:49.151Z,75.15
2023-01-31T01:42:49.143Z,75.05
2023-01-31T01:43:49.147Z,74.95
2023-01-31T01:44:49.118Z,74.74
2023-01-31T01:45:49.164Z,74.74
2023-01-31T01:46:49.097Z,74.63
2023-01-31T01:47:49.093Z,74.84
2023-01-31T01:48:49.105Z,75.05
2023-01-31T01:49:49.065Z,74.53
2023-01-31T01:50:49.054Z,74.63
2023-01-31T01:51:49.089Z,74.74
2023-01-31T01:52:49.034Z,74.53
2023-01-31T01:53:49.039Z,74.95
2023-01-31T01:54:49.013Z,75.05
2023-01-31T01:55:49.000Z,75.05
2023-01-31T01:56:48.987Z,74.84
2023-01-31T01:57:48.980Z,75.05
2023-01-31T01:58:48.979Z,74.74
2023-01-31T01:59:48.977Z,74.74
2023-01-31T02:00:48.965Z,75.05
2023-01-31T02:01:48.973Z,75.05
2023-01-31T02:02:48.928Z,75.05
2023-01-31T02:03:48.914Z,75.15
2023-01-31T02:04:48.925Z,75.05
2023-01-31T02:05:48.894Z,75.26
2023-01-31T02:06:48.901Z,75.15
2023-01-31T02:07:48.894Z,75.15
2023-01-31T02:08:48.864Z,75.36
2023-01-31T02:09:48.863Z,75.46
2023-01-31T02:10:48.841Z,75.67
2023-01-31T02:11:48.839Z,75.57
2023-01-31T02:12:48.817Z,75.57
2023-01-31T02:13:48.807Z,75.46
2023-01-31T02:14:48.807Z,75.57
2023-01-31T02:15:48.786Z,75.57
2023-01-31T02:16:48.870Z,75.57
2023-01-31T02:17:48.765Z,75.78
2023-01-31T02:18:48.752Z,75.67
2023-01-31T02:19:48.760Z,75.78
2023-01-31T02:20:48.734Z,75.78
2023-01-31T02:21:48.721Z,75.57
2023-01-31T02:22:48.711Z,75.57
2023-01-31T02:23:48.718Z,75.57
2023-01-31T02:24:48.700Z,75.67
2023-01-31T02:25:48.689Z,75.46
2023-01-31T02:26:48.769Z,75.57
2023-01-31T02:27:48.658Z,75.46
2023-01-31T02:28:48.646Z,75.57
2023-01-31T02:29:48.648Z,75.46
2023-01-31T02:30:48.682Z,75.57
2023-01-31T02:31:48.675Z,75.57
2023-01-31T02:32:48.604Z,75.26
2023-01-31T02:33:48.600Z,75.46
2023-01-31T02:34:48.597Z,75.46
2023-01-31T02:35:48.578Z,75.36
2023-01-31T02:36:48.567Z,75.15
2023-01-31T02:37:48.557Z,74.91
2023-01-31T02:38:48.540Z,75.05
2023-01-31T02:39:48.558Z,75.05
2023-01-31T02:40:48.523Z,75.15
2023-01-31T02:41:48.512Z,75.15
2023-01-31T02:42:48.497Z,75.46
2023-01-31T02:43:48.489Z,75.05
2023-01-31T02:44:48.483Z,75.05
2023-01-31T02:45:48.499Z,74.84
2023-01-31T02:46:48.455Z,74.84
2023-01-31T02:47:48.454Z,75.40
2023-01-31T02:48:48.439Z,75.46
2023-01-31T02:49:48.435Z,75.15
2023-01-31T02:50:48.419Z,75.46
2023-01-31T02:51:48.407Z,75.50
2023-01-31T02:52:48.390Z,75.71
2023-01-31T02:53:48.388Z,75.81
2023-01-31T02:54:48.407Z,75.81
2023-01-31T02:55:48.407Z,75.92
2023-01-31T02:56:48.345Z,76.12
2023-01-31T02:57:48.337Z,76.12
2023-01-31T02:58:48.376Z,75.81
2023-01-31T02:59:48.348Z,76.12
2023-01-31T03:00:48.316Z,76.32
2023-01-31T03:01:48.370Z,76.26
2023-01-31T03:02:48.369Z,76.36
2023-01-31T03:03:48.276Z,76.78
2023-01-31T03:04:48.284Z,76.67
2023-01-31T03:05:48.253Z,76.67
2023-01-31T03:06:48.258Z,76.67
2023-01-31T03:07:48.241Z,77.40
2023-01-31T03:08:48.225Z,76.98
2023-01-31T03:09:48.225Z,76.67
2023-01-31T03:10:48.198Z,77.19
2023-01-31T03:11:48.212Z,77.29
2023-01-31T03:12:48.203Z,77.85
2023-01-31T03:13:48.168Z,77.95
2023-01-31T03:14:48.190Z,77.75
2023-01-31T03:15:48.147Z,77.71
2023-01-31T03:16:48.221Z,77.75
2023-01-31T03:17:48.123Z,77.92
2023-01-31T03:18:48.116Z,78.02
2023-01-31T03:19:48.124Z,78.33
2023-01-31T03:20:48.095Z,78.02
2023-01-31T03:21:48.083Z,78.37
2023-01-31T03:22:48.069Z,78.47
2023-01-31T03:23:48.064Z,78.27
2023-01-31T03:24:48.083Z,78.06
2023-01-31T03:25:48.072Z,78.06
2023-01-31T03:26:48.072Z,77.95
2023-01-31T03:27:48.039Z,78.27
2023-01-31T03:28:48.010Z,78.06
2023-01-31T03:29:48.014Z,78.58
2023-01-31T03:30:48.103Z,78.27
2023-01-31T03:31:48.090Z,78.72
2023-01-31T03:32:47.969Z,78.47
2023-01-31T03:33:47.956Z,78.47
2023-01-31T03:34:47.959Z,78.58
2023-01-31T03:35:47.935Z,79.20
2023-01-31T03:36:47.921Z,79.20
2023-01-31T03:37:47.914Z,78.68
2023-01-31T03:38:47.901Z,79.41
2023-01-31T03:39:47.904Z,79.03
2023-01-31T03:40:47.884Z,79.24
2023-01-31T03:41:47.878Z,79.03
2023-01-31T03:42:47.877Z,79.13
2023-01-31T03:43:47.874Z,79.24
2023-01-31T03:44:47.856Z,79.24
2023-01-31T03:45:47.830Z,79.13
2023-01-31T03:46:47.820Z,79.20
2023-01-31T03:47:47.862Z,79.20
2023-01-31T03:48:47.795Z,79.13
2023-01-31T03:49:47.799Z,79.55
2023-01-31T03:50:47.772Z,79.75
2023-01-31T03:51:47.775Z,79.24
2023-01-31T03:52:47.762Z,79.34
2023-01-31T03:53:47.743Z,80.06
2023-01-31T03:54:47.764Z,79.75
2023-01-31T03:55:47.736Z,79.75
2023-01-31T03:56:47.720Z,79.44
2023-01-31T03:57:47.700Z,79.96
2023-01-31T03:58:47.693Z,80.06
2023-01-31T03:59:47.717Z,80.00
2023-01-31T04:00:47.671Z,79.96
2023-01-31T04:01:47.680Z,80.16
2023-01-31T04:02:47.671Z,79.85
2023-01-31T04:03:47.638Z,79.96
2023-01-31T04:04:47.635Z,80.06
2023-01-31T04:05:55.357Z,80.27
2023-01-31T04:06:47.621Z,80.16
2023-01-31T04:07:47.596Z,79.96
2023-01-31T04:08:47.589Z,80.16
2023-01-31T04:09:47.611Z,80.37
2023-01-31T04:10:47.563Z,79.96
2023-01-31T04:11:47.554Z,80.16
2023-01-31T04:12:47.575Z,79.96
2023-01-31T04:13:47.541Z,80.21
2023-01-31T04:14:47.542Z,79.96
2023-01-31T04:15:47.545Z,79.96
2023-01-31T04:16:47.502Z,80.27
2023-01-31T04:17:47.492Z,80.27
2023-01-31T04:18:47.492Z,80.27
2023-01-31T04:19:47.486Z,80.06
2023-01-31T04:20:47.462Z,80.37
2023-01-31T04:21:47.453Z,80.27
2023-01-31T04:22:47.453Z,80.27
2023-01-31T04:23:47.428Z,80.06
2023-01-31T04:24:47.426Z,80.58
2023-01-31T04:25:47.403Z,80.52
2023-01-31T04:26:47.409Z,80.58
2023-01-31T04:27:47.381Z,80.58
2023-01-31T04:28:47.389Z,80.52
2023-01-31T04:29:47.408Z,80.83
2023-01-31T04:30:47.359Z,80.68
2023-01-31T04:31:47.471Z,80.89
2023-01-31T04:32:47.350Z,81.51
2023-01-31T04:33:47.324Z,81.10
2023-01-31T04:34:47.325Z,81.10
2023-01-31T04:35:47.300Z,81.30
2023-01-31T04:36:47.287Z,81.35
2023-01-31T04:37:47.327Z,81.20
2023-01-31T04:38:47.261Z,81.30
2023-01-31T04:39:47.262Z,81.76
2023-01-31T04:40:47.247Z,81.66
2023-01-31T04:41:47.233Z,81.56
2023-01-31T04:42:47.257Z,81.45
2023-01-31T04:43:47.219Z,81.45
2023-01-31T04:44:47.222Z,81.62
2023-01-31T04:45:47.190Z,81.51
2023-01-31T04:46:47.202Z,81.66
2023-01-31T04:47:47.186Z,81.56
2023-01-31T04:48:47.158Z,81.56
2023-01-31T04:49:47.157Z,81.66
2023-01-31T04:50:47.178Z,81.76
2023-01-31T04:51:47.125Z,81.62
2023-01-31T04:52:47.123Z,81.76
2023-01-31T04:53:47.104Z,81.66
2023-01-31T04:54:47.127Z,81.87
2023-01-31T04:55:47.085Z,82.07
2023-01-31T04:56:47.073Z,81.97
2023-01-31T04:57:47.064Z,82.07
2023-01-31T04:58:47.051Z,82.39
2023-01-31T04:59:47.042Z,82.49
2023-01-31T05:00:47.065Z,82.28
2023-01-31T05:01:47.019Z,82.28
2023-01-31T05:02:47.155Z,82.73
2023-01-31T05:03:47.025Z,82.70
2023-01-31T05:04:46.994Z,82.53
2023-01-31T05:05:46.984Z,82.70
2023-01-31T05:06:46.981Z,82.90
2023-01-31T05:07:46.959Z,82.39
2023-01-31T05:08:46.951Z,82.49
2023-01-31T05:09:46.959Z,82.59
2023-01-31T05:10:46.938Z,82.70
2023-01-31T05:11:46.914Z,82.80
2023-01-31T05:12:46.903Z,82.59
2023-01-31T05:13:46.944Z,82.49
2023-01-31T05:14:46.880Z,82.59
2023-01-31T05:15:46.884Z,82.39
2023-01-31T05:16:46.865Z,82.80
2023-01-31T05:17:46.855Z,82.39
2023-01-31T05:18:46.840Z,82.80
2023-01-31T05:19:46.847Z,82.59
2023-01-31T05:20:46.833Z,82.59
2023-01-31T05:21:46.809Z,82.86
2023-01-31T05:22:46.796Z,82.90
2023-01-31T05:23:46.786Z,82.76
2023-01-31T05:24:46.779Z,82.86
2023-01-31T05:25:46.776Z,82.86
2023-01-31T05:26:46.771Z,82.86
2023-01-31T05:27:46.741Z,82.97
2023-01-31T05:28:46.731Z,83.17
2023-01-31T05:29:46.722Z,82.97
2023-01-31T05:30:46.828Z,82.97
2023-01-31T05:31:46.812Z,82.65
2023-01-31T05:32:46.690Z,82.76
2023-01-31T05:33:46.678Z,82.93
2023-01-31T05:34:46.666Z,82.62
2023-01-31T05:35:46.693Z,82.65
2023-01-31T05:36:46.647Z,82.34
2023-01-31T05:37:46.641Z,82.97
2023-01-31T05:38:46.629Z,82.72
2023-01-31T05:39:46.620Z,82.97
2023-01-31T05:40:46.636Z,82.86
2023-01-31T05:41:46.594Z,83.03
2023-01-31T05:42:46.584Z,83.24
2023-01-31T05:43:46.573Z,83.03
2023-01-31T05:44:46.565Z,82.93
2023-01-31T05:45:46.580Z,82.93
2023-01-31T05:46:46.550Z,82.82
2023-01-31T05:47:46.530Z,82.72
2023-01-31T05:48:46.527Z,81.79
2023-01-31T05:49:46.506Z,81.79
2023-01-31T05:50:46.507Z,82.10
2023-01-31T05:51:46.554Z,81.99
2023-01-31T05:52:46.485Z,81.99
2023-01-31T05:53:46.464Z,82.10
2023-01-31T05:54:46.460Z,81.96
2023-01-31T05:55:46.453Z,81.96
2023-01-31T05:56:46.437Z,81.85
2023-01-31T05:57:46.422Z,81.96
2023-01-31T05:58:46.413Z,81.85
2023-01-31T05:59:46.404Z,82.17
2023-01-31T06:00:46.403Z,82.48
2023-01-31T06:01:46.407Z,82.48
2023-01-31T06:02:46.370Z,82.37
2023-01-31T06:03:46.359Z,82.58
2023-01-31T06:04:46.356Z,82.48
2023-01-31T06:05:46.352Z,82.58
2023-01-31T06:06:46.339Z,82.68
2023-01-31T06:07:46.332Z,82.65
2023-01-31T06:08:46.312Z,82.44
2023-01-31T06:09:46.297Z,82.37
2023-01-31T06:10:46.298Z,82.37
2023-01-31T06:11:46.285Z,82.58
2023-01-31T06:12:46.271Z,82.65
2023-01-31T06:13:46.276Z,82.68
2023-01-31T06:14:46.253Z,82.79
2023-01-31T06:15:46.251Z,82.68
2023-01-31T06:16:46.261Z,82.75
2023-01-31T06:17:46.210Z,83.00
2023-01-31T06:18:46.207Z,82.65
2023-01-31T06:19:46.190Z,82.65
2023-01-31T06:20:46.189Z,82.65
2023-01-31T06:21:46.171Z,82.23
2023-01-31T06:22:46.159Z,82.44
2023-01-31T06:23:46.169Z,82.86
2023-01-31T06:24:46.138Z,83.10
2023-01-31T06:25:46.133Z,82.89
2023-01-31T06:26:46.142Z,82.89
2023-01-31T06:27:46.105Z,82.65
2023-01-31T06:28:46.444Z,83.16
2023-01-31T06:29:46.092Z,83.06
2023-01-31T06:30:46.180Z,82.95
2023-01-31T06:31:46.130Z,82.95
2023-01-31T06:32:46.085Z,82.95
2023-01-31T06:33:48.047Z,83.06
2023-01-31T06:34:46.033Z,82.58
2023-01-31T06:35:46.029Z,82.95
2023-01-31T06:36:46.020Z,83.06
2023-01-31T06:37:45.998Z,82.86
2023-01-31T06:38:45.988Z,83.16
2023-01-31T06:39:46.003Z,82.54
2023-01-31T06:40:45.979Z,82.95
2023-01-31T06:41:45.955Z,82.65
2023-01-31T06:42:45.946Z,82.44
2023-01-31T06:43:45.937Z,82.34
2023-01-31T06:44:45.925Z,82.75
2023-01-31T06:45:45.947Z,82.54
2023-01-31T06:46:45.911Z,82.23
2023-01-31T06:47:45.935Z,82.23
2023-01-31T06:48:45.882Z,82.44
2023-01-31T06:49:45.870Z,82.75
2023-01-31T06:50:45.943Z,83.16
2023-01-31T06:51:45.853Z,83.16
2023-01-31T06:52:45.838Z,82.81
2023-01-31T06:53:45.826Z,83.06
2023-01-31T06:54:45.828Z,82.71
2023-01-31T06:55:45.844Z,82.95
2023-01-31T06:56:45.801Z,83.12
2023-01-31T06:57:45.788Z,82.86
2023-01-31T06:58:45.777Z,83.06
2023-01-31T06:59:45.764Z,82.54
2023-01-31T07:00:45.768Z,82.50
2023-01-31T07:01:45.768Z,82.65
2023-01-31T07:02:45.771Z,83.23
2023-01-31T07:03:45.721Z,83.33
2023-01-31T07:04:45.772Z,83.64
2023-01-31T07:05:45.713Z,83.54
2023-01-31T07:06:45.697Z,83.47
2023-01-31T07:07:45.685Z,83.64
2023-01-31T07:08:45.668Z,83.85
2023-01-31T07:09:45.702Z,83.78
2023-01-31T07:10:45.695Z,84.06
2023-01-31T07:11:45.665Z,84.06
2023-01-31T07:12:45.636Z,84.37
2023-01-31T07:13:45.614Z,84.06
2023-01-31T07:14:45.606Z,84.16
2023-01-31T07:15:45.635Z,84.16
2023-01-31T07:16:45.586Z,83.95
2023-01-31T07:17:45.576Z,84.68
2023-01-31T07:18:45.563Z,84.47
2023-01-31T07:19:45.553Z,84.47
2023-01-31T07:20:45.554Z,84.47
2023-01-31T07:21:45.547Z,84.16
2023-01-31T07:22:45.533Z,84.68
2023-01-31T07:23:45.528Z,84.47
2023-01-31T07:24:45.512Z,84.58
2023-01-31T07:25:45.505Z,83.95
2023-01-31T07:26:45.602Z,84.06
2023-01-31T07:27:45.487Z,84.47
2023-01-31T07:28:45.466Z,84.58
2023-01-31T07:29:45.453Z,84.27
2023-01-31T07:30:45.459Z,84.58
2023-01-31T07:31:45.528Z,84.47
2023-01-31T07:32:45.420Z,84.37
2023-01-31T07:33:45.436Z,84.37
2023-01-31T07:34:45.394Z,84.37
2023-01-31T07:35:45.397Z,84.43
2023-01-31T07:36:45.368Z,84.47
2023-01-31T07:37:45.357Z,84.58
2023-01-31T07:38:45.350Z,84.12
2023-01-31T07:39:45.338Z,84.37
2023-01-31T07:40:45.341Z,84.06
2023-01-31T07:41:45.325Z,84.64
2023-01-31T07:42:45.316Z,83.91
2023-01-31T07:43:45.315Z,83.81
2023-01-31T07:44:45.286Z,84.22
2023-01-31T07:45:45.338Z,84.01
2023-01-31T07:46:45.271Z,83.91
2023-01-31T07:47:45.249Z,84.22
2023-01-31T07:48:45.244Z,84.33
2023-01-31T07:49:45.246Z,84.33
2023-01-31T07:50:45.231Z,84.53
2023-01-31T07:51:45.215Z,84.22
2023-01-31T07:52:45.211Z,84.22
2023-01-31T07:53:45.211Z,84.43
2023-01-31T07:54:45.181Z,83.91
2023-01-31T07:55:45.178Z,84.22
2023-01-31T07:56:45.167Z,84.22
2023-01-31T07:57:45.161Z,84.22
2023-01-31T07:58:45.141Z,84.22
2023-01-31T07:59:45.146Z,84.01
2023-01-31T08:00:45.155Z,83.91
2023-01-31T08:01:45.115Z,83.91
2023-01-31T08:02:45.097Z,84.22
2023-01-31T08:03:45.080Z,83.91
2023-01-31T08:04:45.128Z,84.33
2023-01-31T08:05:45.070Z,84.22
2023-01-31T08:06:45.049Z,84.43
2023-01-31T08:07:45.041Z,84.50
2023-01-31T08:08:45.032Z,84.60
2023-01-31T08:09:45.016Z,84.43
2023-01-31T08:10:45.098Z,84.33
2023-01-31T08:11:45.061Z,83.91
2023-01-31T08:12:44.984Z,84.01
2023-01-31T08:13:45.539Z,83.91
2023-01-31T08:14:45.417Z,83.91
2023-01-31T08:15:45.383Z,83.77
2023-01-31T08:16:45.342Z,83.87
2023-01-31T08:17:45.210Z,83.84
2023-01-31T08:18:45.418Z,83.87
2023-01-31T08:19:44.989Z,83.87
2023-01-31T08:20:45.086Z,83.56
2023-01-31T08:21:44.888Z,84.08
2023-01-31T08:22:44.877Z,83.87
2023-01-31T08:23:45.014Z,84.50
2023-01-31T08:24:44.900Z,84.29
2023-01-31T08:25:44.864Z,85.11
2023-01-31T08:26:44.907Z,85.32
2023-01-31T08:27:44.826Z,85.02
2023-01-31T08:28:44.928Z,85.63
2023-01-31T08:29:44.813Z,85.02
2023-01-31T08:30:50.342Z,85.11
2023-01-31T08:31:46.264Z,85.74
2023-01-31T08:32:44.771Z,85.02
2023-01-31T08:33:44.764Z,85.11
2023-01-31T08:34:44.762Z,84.91
2023-01-31T08:35:44.776Z,85.53
2023-01-31T08:36:44.777Z,85.63
2023-01-31T08:37:44.730Z,85.74
2023-01-31T08:38:44.829Z,85.74
2023-01-31T08:39:44.703Z,85.74
2023-01-31T08:40:44.699Z,85.94
2023-01-31T08:41:44.681Z,85.63
2023-01-31T08:42:44.672Z,85.94
2023-01-31T08:43:55.897Z,86.05
2023-01-31T08:44:45.644Z,86.05
2023-01-31T08:45:44.656Z,85.94
2023-01-31T08:46:44.680Z,85.94
2023-01-31T08:47:44.660Z,86.05
2023-01-31T08:48:44.605Z,85.63
2023-01-31T08:49:44.589Z,85.91
2023-01-31T08:50:44.580Z,86.01
2023-01-31T08:51:44.580Z,86.01
2023-01-31T08:52:44.560Z,85.80
2023-01-31T08:53:44.548Z,85.70
2023-01-31T08:54:44.540Z,85.60
2023-01-31T08:55:44.530Z,85.60
2023-01-31T08:56:44.539Z,85.39
2023-01-31T08:57:58.040Z,85.49
2023-01-31T08:58:45.495Z,85.22
2023-01-31T08:59:44.483Z,85.18
2023-01-31T09:00:44.475Z,85.74
2023-01-31T09:01:44.529Z,85.08
2023-01-31T09:02:44.499Z,85.28
2023-01-31T09:03:45.461Z,84.66
2023-01-31T09:04:44.434Z,85.39
2023-01-31T09:05:44.421Z,84.66
2023-01-31T09:06:44.426Z,85.28
2023-01-31T09:07:44.402Z,85.49
2023-01-31T09:08:44.399Z,85.60
2023-01-31T09:09:44.382Z,85.70
2023-01-31T09:10:44.369Z,84.94
2023-01-31T09:11:44.367Z,85.04
2023-01-31T09:12:44.347Z,83.80
2023-01-31T09:13:44.347Z,84.31
2023-01-31T09:14:44.324Z,84.36
2023-01-31T09:15:44.331Z,84.05
2023-01-31T09:16:44.323Z,83.84
2023-01-31T09:17:44.294Z,84.15
2023-01-31T09:18:44.283Z,83.90
2023-01-31T09:19:44.343Z,83.63
2023-01-31T09:20:44.261Z,83.84
2023-01-31T09:21:44.264Z,83.70
2023-01-31T09:22:44.239Z,83.63
2023-01-31T09:23:44.235Z,83.42
2023-01-31T09:24:44.219Z,83.53
2023-01-31T09:25:47.623Z,83.39
2023-01-31T09:26:44.285Z,83.49
2023-01-31T09:27:44.186Z,83.18
2023-01-31T09:28:44.174Z,83.28
2023-01-31T09:29:44.169Z,83.28
2023-01-31T09:30:44.209Z,82.97
2023-01-31T09:31:44.201Z,82.97
2023-01-31T09:32:44.135Z,82.87
2023-01-31T09:33:44.125Z,82.66
2023-01-31T09:34:44.111Z,82.66
2023-01-31T09:35:44.121Z,82.45
2023-01-31T09:36:44.102Z,82.56
2023-01-31T09:37:44.083Z,82.93
2023-01-31T09:38:44.076Z,82.66
2023-01-31T09:39:44.061Z,82.42
2023-01-31T09:40:44.048Z,82.42
2023-01-31T09:41:44.047Z,82.31
2023-01-31T09:42:44.042Z,82.00
2023-01-31T09:43:44.051Z,82.10
2023-01-31T09:44:44.011Z,81.49
2023-01-31T09:45:43.996Z,81.80
2023-01-31T09:46:44.011Z,81.38
2023-01-31T09:47:43.981Z,80.97
2023-01-31T09:48:43.964Z,81.18
2023-01-31T09:49:43.957Z,81.38
2023-01-31T09:50:43.944Z,80.97
2023-01-31T09:51:43.971Z,81.24
2023-01-31T09:52:43.925Z,81.14
2023-01-31T09:53:43.910Z,81.04
2023-01-31T09:54:43.918Z,81.04
2023-01-31T09:55:43.895Z,80.87
2023-01-31T09:56:43.886Z,81.35
2023-01-31T09:57:43.887Z,81.14
2023-01-31T09:58:43.859Z,80.73
2023-01-31T09:59:43.845Z,80.04
2023-01-31T10:00:43.875Z,80.32
2023-01-31T10:01:43.832Z,80.62
2023-01-31T10:02:43.808Z,80.73
2023-01-31T10:03:43.824Z,80.42
2023-01-31T10:04:43.793Z,79.97
2023-01-31T10:05:43.782Z,79.80
2023-01-31T10:06:43.777Z,80.07
2023-01-31T10:07:43.785Z,80.07
2023-01-31T10:08:43.749Z,79.90
2023-01-31T10:09:43.783Z,80.18
2023-01-31T10:10:43.722Z,79.55
2023-01-31T10:11:43.724Z,79.45
2023-01-31T10:12:43.704Z,79.76
2023-01-31T10:13:43.697Z,79.55
2023-01-31T10:14:43.680Z,79.45
2023-01-31T10:15:43.679Z,79.76
2023-01-31T10:16:43.672Z,79.55
2023-01-31T10:17:43.752Z,79.86
2023-01-31T10:18:43.652Z,79.76
2023-01-31T10:19:43.641Z,79.66
2023-01-31T10:20:43.615Z,79.55
2023-01-31T10:21:43.620Z,79.55
2023-01-31T10:22:43.594Z,79.35
2023-01-31T10:23:43.610Z,79.66
2023-01-31T10:24:43.597Z,79.04
2023-01-31T10:25:43.568Z,79.14
2023-01-31T10:26:43.649Z,79.66
2023-01-31T10:27:43.544Z,79.35
2023-01-31T10:28:43.531Z,79.14
2023-01-31T10:29:43.532Z,79.14
2023-01-31T10:30:43.550Z,79.14
2023-01-31T10:31:44.253Z,79.14
2023-01-31T10:32:43.490Z,79.25
2023-01-31T10:33:43.476Z,79.25
2023-01-31T10:34:43.467Z,79.35
2023-01-31T10:35:43.461Z,79.86
2023-01-31T10:36:43.457Z,79.97
2023-01-31T10:37:44.535Z,81.31
2023-01-31T10:38:43.422Z,81.21
2023-01-31T10:39:43.436Z,81.21
2023-01-31T10:40:43.407Z,81.82
2023-01-31T10:41:43.400Z,81.62
2023-01-31T10:42:43.378Z,82.14
2023-01-31T10:43:43.369Z,82.03
2023-01-31T10:44:43.368Z,82.69
2023-01-31T10:45:43.441Z,82.89
2023-01-31T10:46:43.370Z,82.28
2023-01-31T10:47:43.653Z,82.75
2023-01-31T10:48:45.920Z,82.24
2023-01-31T10:49:43.311Z,82.14
2023-01-31T10:50:43.949Z,82.45
2023-01-31T10:51:43.729Z,82.55
2023-01-31T10:52:43.880Z,82.34
2023-01-31T10:53:43.923Z,82.14
2023-01-31T10:54:43.856Z,82.14
2023-01-31T10:55:43.269Z,82.24
2023-01-31T10:56:43.239Z,81.82
2023-01-31T10:57:43.217Z,81.21
2023-01-31T10:58:43.210Z,81.72
2023-01-31T10:59:43.197Z,81.31
2023-01-31T11:00:43.284Z,81.10
2023-01-31T11:01:43.206Z,81.21
2023-01-31T11:02:43.162Z,81.10
2023-01-31T11:03:43.155Z,80.90
2023-01-31T11:04:43.149Z,81.21
2023-01-31T11:05:43.149Z,81.21
2023-01-31T11:06:43.122Z,81.10
2023-01-31T11:07:43.123Z,80.96
2023-01-31T11:08:43.098Z,80.96
2023-01-31T11:09:43.097Z,81.21
2023-01-31T11:10:43.079Z,81.07
2023-01-31T11:11:43.096Z,81.17
2023-01-31T11:12:43.117Z,80.69
2023-01-31T11:13:43.047Z,79.86
2023-01-31T11:14:43.036Z,79.62
2023-01-31T11:15:43.026Z,80.28
2023-01-31T11:16:43.034Z,80.04
2023-01-31T11:17:43.015Z,79.97
2023-01-31T11:18:43.004Z,80.07
2023-01-31T11:19:42.981Z,79.86
2023-01-31T11:20:42.973Z,79.97
2023-01-31T11:21:42.991Z,79.93
2023-01-31T11:22:42.961Z,80.04
2023-01-31T11:23:42.937Z,79.72
2023-01-31T11:24:42.930Z,79.52
2023-01-31T11:25:42.917Z,79.41
2023-01-31T11:26:42.998Z,80.07
2023-01-31T11:27:42.926Z,80.34
2023-01-31T11:28:42.885Z,80.96
2023-01-31T11:29:42.878Z,81.00
2023-01-31T11:30:42.899Z,81.07
2023-01-31T11:31:42.900Z,81.17
2023-01-31T11:32:42.852Z,81.17
2023-01-31T11:33:42.834Z,81.51
2023-01-31T11:34:42.820Z,81.68
2023-01-31T11:35:42.808Z,81.99
2023-01-31T11:36:42.813Z,82.71
2023-01-31T11:37:42.797Z,82.30
2023-01-31T11:38:42.777Z,82.61
2023-01-31T11:39:42.772Z,82.51
2023-01-31T11:40:42.757Z,83.13
2023-01-31T11:41:42.755Z,82.96
2023-01-31T11:42:42.779Z,82.40
2023-01-31T11:43:43.371Z,82.82
2023-01-31T11:44:42.725Z,82.51
2023-01-31T11:45:42.699Z,82.82
2023-01-31T11:46:42.690Z,82.82
2023-01-31T11:47:42.698Z,82.96
2023-01-31T11:48:42.669Z,82.92
2023-01-31T11:49:42.715Z,82.65
2023-01-31T11:50:42.663Z,82.20
2023-01-31T11:51:42.639Z,82.86
2023-01-31T11:52:42.638Z,82.45
2023-01-31T11:53:42.630Z,82.75
2023-01-31T11:54:42.608Z,82.71
2023-01-31T11:55:42.592Z,82.82
2023-01-31T11:56:42.588Z,82.55
2023-01-31T11:57:42.590Z,82.86
2023-01-31T11:58:42.561Z,82.20
2023-01-31T11:59:42.581Z,82.61
2023-01-31T12:00:42.566Z,82.51
2023-01-31T12:01:42.552Z,81.99
2023-01-31T12:02:42.564Z,82.10
2023-01-31T12:03:59.067Z,81.99
2023-01-31T12:04:43.504Z,81.99
2023-01-31T12:05:42.513Z,82.03
2023-01-31T12:06:42.505Z,81.99
2023-01-31T12:07:42.477Z,81.89
2023-01-31T12:08:42.465Z,82.10
2023-01-31T12:09:42.443Z,82.30
2023-01-31T12:10:42.450Z,82.20
2023-01-31T12:11:42.422Z,82.10
2023-01-31T12:12:42.449Z,81.99
2023-01-31T12:13:42.400Z,82.71
2023-01-31T12:14:42.408Z,82.51
2023-01-31T12:15:42.402Z,82.71
2023-01-31T12:16:42.449Z,82.61
2023-01-31T12:17:42.475Z,82.24
2023-01-31T12:18:42.377Z,82.71
2023-01-31T12:19:42.335Z,82.71
2023-01-31T12:20:42.323Z,82.92
2023-01-31T12:21:42.388Z,83.03
2023-01-31T12:22:42.323Z,82.96
2023-01-31T12:23:42.294Z,83.33
2023-01-31T12:24:42.371Z,83.44
2023-01-31T12:25:42.273Z,83.68
2023-01-31T12:26:42.292Z,83.68
2023-01-31T12:27:42.262Z,83.78
2023-01-31T12:28:42.238Z,83.78
2023-01-31T12:29:42.235Z,84.41
2023-01-31T12:30:42.219Z,84.72
2023-01-31T12:31:42.324Z,85.02
2023-01-31T12:32:42.215Z,85.02
2023-01-31T12:33:42.196Z,85.02
2023-01-31T12:34:58.977Z,84.81
2023-01-31T12:35:43.165Z,85.13
2023-01-31T12:36:42.157Z,84.72
2023-01-31T12:37:42.163Z,84.92
2023-01-31T12:38:42.134Z,85.02
2023-01-31T12:39:42.134Z,85.54
2023-01-31T12:40:42.112Z,85.75
2023-01-31T12:41:42.103Z,85.75
2023-01-31T12:42:42.115Z,86.20
2023-01-31T12:43:42.092Z,86.68
2023-01-31T12:44:42.068Z,86.36
2023-01-31T12:45:42.059Z,86.36
2023-01-31T12:46:42.150Z,86.57
2023-01-31T12:47:42.078Z,86.78
2023-01-31T12:48:42.031Z,86.82
2023-01-31T12:49:42.010Z,86.71
2023-01-31T12:50:42.004Z,87.54
2023-01-31T12:51:42.003Z,87.44
2023-01-31T12:52:41.988Z,88.16